Time;durP1;ratioP1;P1;durP2;ratioP2;P2;SDS_P1;SDS_P2;PMS_P1;PMS_P2;Temp;Humidity;BMP_temperature;BMP_pressure;BME280_temperature;BME280_humidity;BME280_pressure;Samples;Min_cycle;Max_cycle;Signal;HPM_P1;HPM_P2
2022/11/17 09:01:07;;;;;;;74.90;19.50;;;;;;;21.87;37.46;98994.93;106851;1272;67876;-93
2022/11/17 09:03:40;;;;;;;77.90;20.70;;;;;;;21.89;37.33;98992.21;106650;1282;75336;-93
2022/11/17 09:06:08;;;;;;;62.10;20.40;;;;;;;21.91;37.48;98986.66;106679;1283;82941;-91
2022/11/17 09:08:54;;;;;;;66.90;19.50;;;;;;;21.93;37.45;98990.20;106779;1283;72788;-90
2022/11/17 09:20:32;;;;;;;37.40;17.00;;;;;;;22.00;37.76;98966.82;106764;1272;81285;31
2022/11/17 09:25:45;;;;;;;38.00;18.10;;;;;;;22.01;37.86;98948.01;107089;1280;66823;-94
2022/11/17 09:40:00;;;;;;;36.20;20.00;;;;;;;21.94;37.81;98931.69;106906;1272;68376;-91
2022/11/17 09:42:30;;;;;;;36.10;21.60;;;;;;;21.94;37.78;98932.67;106797;1282;66926;-92
2022/11/17 09:57:00;;;;;;;26.60;16.30;;;;;;;21.89;38.08;98933.48;106481;1277;68539;31
2022/11/17 10:05:30;;;;;;;28.50;15.60;;;;;;;21.84;38.20;98924.45;106946;1279;71850;-89
2022/11/17 10:08:07;;;;;;;26.50;15.30;;;;;;;21.85;38.31;98927.48;106778;1283;67349;-90
2022/11/17 10:10:49;;;;;;;26.00;14.40;;;;;;;21.85;38.31;98923.66;106788;1290;66854;-92
2022/11/17 10:13:34;;;;;;;27.10;15.90;;;;;;;21.85;38.33;98922.64;106989;1280;74131;-92
2022/11/17 10:16:03;;;;;;;26.90;15.90;;;;;;;21.85;38.44;98922.54;106791;1282;82799;-93
2022/11/17 10:18:46;;;;;;;35.20;16.70;;;;;;;21.86;38.49;98924.27;106783;1283;72484;-92
2022/11/17 10:21:11;;;;;;;26.10;15.40;;;;;;;21.86;38.54;98918.57;106300;1281;67504;-92
2022/11/17 10:35:56;;;;;;;25.90;13.10;;;;;;;21.84;38.92;98880.59;106500;1276;67244;31
2022/11/17 11:15:01;;;;;;;15.50;10.50;;;;;;;21.83;39.82;98896.27;107075;1280;80255;-91
2022/11/17 11:29:50;;;;;;;16.20;10.90;;;;;;;21.82;40.12;98916.88;106891;1280;80216;-92
2022/11/17 11:32:44;;;;;;;22.00;12.50;;;;;;;21.81;40.15;98921.87;106552;1283;72427;-92
2022/11/17 11:35:45;;;;;;;22.20;12.20;;;;;;;21.80;40.31;98926.77;106738;1277;66899;-89
2022/11/17 11:47:34;;;;;;;23.10;12.00;;;;;;;21.75;40.24;98944.14;106876;1278;71205;31
2022/11/17 12:28:31;;;;;;;21.00;14.70;;;;;;;21.67;40.33;98968.13;106852;1277;73838;-92
2022/11/17 12:37:14;;;;;;;21.50;14.50;;;;;;;21.69;40.05;98971.80;106875;1281;66810;-92
2022/11/17 12:39:57;;;;;;;23.30;14.80;;;;;;;21.69;40.14;98971.20;106842;1272;68242;-90
2022/11/17 12:45:12;;;;;;;23.90;14.00;;;;;;;21.69;40.03;98970.04;106977;1279;80261;-92
2022/11/17 12:47:57;;;;;;;21.20;14.00;;;;;;;21.69;39.90;98973.68;106496;1287;67575;-92
2022/11/17 12:50:49;;;;;;;19.90;14.30;;;;;;;21.70;40.02;98973.91;106681;1283;67180;-91
2022/11/17 12:53:47;;;;;;;19.90;14.70;;;;;;;21.70;39.91;98972.48;107074;1278;66770;-89
2022/11/17 12:56:40;;;;;;;20.00;13.80;;;;;;;21.70;39.81;98977.86;106744;1281;73508;-92
2022/11/17 13:02:20;;;;;;;24.90;14.50;;;;;;;21.69;39.84;98982.80;107021;1285;70173;-90
2022/11/17 13:07:40;;;;;;;19.80;13.70;;;;;;;21.67;39.65;98991.50;106876;1287;66360;31
2022/11/17 13:10:20;;;;;;;31.50;15.40;;;;;;;21.67;39.70;98985.68;106850;1286;74464;-91
2022/11/17 13:12:45;;;;;;;26.90;12.90;;;;;;;21.67;39.66;98983.13;106812;1280;82956;-90
2022/11/17 13:15:20;;;;;;;34.10;14.70;;;;;;;21.67;39.74;98983.47;106792;1283;67615;-92
2022/11/17 13:17:46;;;;;;;27.60;13.30;;;;;;;21.67;39.77;98980.23;106741;1282;67098;-89
2022/11/17 13:20:29;;;;;;;22.50;14.10;;;;;;;21.68;39.65;98985.48;106674;1281;66881;-91
2022/11/17 13:23:06;;;;;;;29.90;14.10;;;;;;;21.68;39.65;98985.50;106687;1290;74238;-90
2022/11/17 13:25:41;;;;;;;26.20;14.90;;;;;;;21.68;39.73;98991.98;107021;1279;82817;31
2022/11/17 13:31:05;;;;;;;32.50;14.80;;;;;;;21.67;39.56;98998.11;106855;1286;67054;-92
2022/11/17 13:33:32;;;;;;;29.30;14.60;;;;;;;21.67;39.62;98992.86;106591;1292;66828;-92
2022/11/17 13:36:18;;;;;;;30.30;14.30;;;;;;;21.66;39.54;98999.27;106604;1289;67431;-92
2022/11/17 13:38:50;;;;;;;35.00;13.50;;;;;;;21.66;39.50;99005.41;106637;1286;82869;-92
2022/11/17 13:41:16;;;;;;;28.20;13.50;;;;;;;21.64;39.43;99003.88;106592;1281;71975;-92
2022/11/17 13:43:45;;;;;;;25.80;14.00;;;;;;;21.65;39.38;99006.98;106555;1291;66716;-92
2022/11/17 13:46:11;;;;;;;30.40;13.30;;;;;;;21.64;39.35;99008.38;106564;1292;67447;-92
2022/11/17 13:48:44;;;;;;;25.80;13.00;;;;;;;21.65;39.35;99012.06;106610;1289;67418;-92
2022/11/17 13:51:19;;;;;;;25.70;12.80;;;;;;;21.65;39.37;99009.29;106591;1285;83024;-92
2022/11/17 13:53:58;;;;;;;24.00;13.10;;;;;;;21.62;39.47;99004.08;106850;1289;71420;-93
2022/11/17 13:56:27;;;;;;;17.90;12.50;;;;;;;21.61;39.33;98998.77;106944;1287;67006;-92
2022/11/17 14:05:30;;;;;;;17.40;12.50;;;;;;;21.62;39.98;99002.55;107112;1287;81699;-91
2022/11/17 14:07:56;;;;;;;20.90;12.90;;;;;;;21.65;39.97;99006.98;106689;1284;72426;-91
2022/11/17 14:13:28;;;;;;;20.70;12.70;;;;;;;21.67;39.89;99012.19;107230;1279;67474;-92
2022/11/17 14:15:58;;;;;;;16.90;11.80;;;;;;;21.67;39.95;99010.61;106780;1278;74564;-92
2022/11/17 14:18:27;;;;;;;15.40;11.00;;;;;;;21.68;39.90;99015.33;106859;1277;83068;-92
2022/11/17 14:21:17;;;;;;;18.10;12.10;;;;;;;21.70;40.16;99019.74;107089;1281;72669;-92
2022/11/17 14:24:00;;;;;;;15.50;11.00;;;;;;;21.72;40.33;99022.76;106753;1288;66759;-90
2022/11/17 14:26:39;;;;;;;24.70;12.70;;;;;;;21.74;40.60;99029.31;106754;1280;68578;-91
2022/11/17 14:29:10;;;;;;;34.90;12.50;;;;;;;21.77;40.72;99032.46;106640;1286;74448;-91
2022/11/17 14:50:15;;;;;;;98.90;15.00;;;;;;;21.69;40.50;99055.25;107180;1271;72889;-91
2022/11/17 14:55:30;;;;;;;78.20;13.90;;;;;;;21.66;40.34;99058.23;107124;1281;65297;-91
2022/11/17 14:57:56;;;;;;;61.20;12.80;;;;;;;21.64;40.26;99058.86;106819;1284;67035;-91
2022/11/17 15:00:21;;;;;;;70.60;12.90;;;;;;;21.63;40.32;99057.95;106636;1286;66942;-91
2022/11/17 15:02:47;;;;;;;58.80;12.90;;;;;;;21.62;40.16;99055.27;106580;1285;67440;-91
2022/11/17 15:08:16;;;;;;;44.00;11.20;;;;;;;21.59;40.13;99056.23;106950;1277;73068;-91
2022/11/17 15:10:50;;;;;;;42.00;11.50;;;;;;;21.58;40.11;99058.70;106720;1281;67292;-91
2022/11/17 15:13:24;;;;;;;38.00;10.20;;;;;;;21.57;40.11;99060.58;106781;1283;72383;-88
2022/11/17 15:15:49;;;;;;;37.20;10.80;;;;;;;21.56;39.87;99060.48;106848;1274;66979;-91
2022/11/17 15:18:15;;;;;;;31.50;10.30;;;;;;;21.56;39.98;99061.73;106819;1282;68361;-92
2022/11/17 15:20:40;;;;;;;34.20;10.60;;;;;;;21.55;39.95;99065.02;106863;1284;67712;-91
2022/11/17 15:23:07;;;;;;;27.60;11.40;;;;;;;21.54;39.93;99063.36;106858;1278;67418;-90
2022/11/17 15:25:33;;;;;;;14.10;10.50;;;;;;;21.48;40.02;99069.24;106868;1274;67474;-92
2022/11/17 15:30:25;;;;;;;15.70;10.10;;;;;;;21.21;40.01;99087.83;107168;1278;73687;-90
2022/11/17 15:32:51;;;;;;;16.50;10.60;;;;;;;21.11;40.14;99092.10;106671;1281;67166;-92
2022/11/17 15:35:17;;;;;;;17.80;11.40;;;;;;;21.01;40.12;99096.67;106766;1283;66811;-90
2022/11/17 15:37:51;;;;;;;17.10;11.30;;;;;;;20.87;40.09;99093.77;106692;1287;66676;-90
2022/11/17 15:40:22;;;;;;;16.80;11.20;;;;;;;20.73;40.30;99098.77;106875;1287;66663;-90
2022/11/17 15:42:47;;;;;;;;;;;;;;;20.61;40.43;99100.17;106942;1272;75424;-92
2022/11/17 15:48:02;;;;;;;31.70;11.00;;;;;;;20.59;40.52;99110.64;107021;1280;71433;-93
2022/11/17 15:50:28;;;;;;;18.80;10.60;;;;;;;20.64;40.78;99114.42;106628;1289;68846;-92
2022/11/17 15:52:55;;;;;;;20.50;10.20;;;;;;;20.71;41.09;99108.55;106702;1281;67796;-92
2022/11/17 15:55:21;;;;;;;16.60;9.10;;;;;;;20.77;41.09;99106.21;106661;1283;68178;-92
2022/11/17 16:00:20;;;;;;;16.00;10.00;;;;;;;20.90;41.09;99111.07;106917;1280;71720;-93
2022/11/17 16:03:05;;;;;;;19.40;9.70;;;;;;;20.95;41.06;99110.16;106709;1288;67245;-92
2022/11/17 16:05:31;;;;;;;18.10;9.70;;;;;;;21.02;40.92;99117.76;106815;1282;66866;-92
2022/11/17 16:14:22;;;;;;;16.60;9.40;;;;;;;21.17;40.78;99141.27;106983;1279;70284;-92
2022/11/17 16:16:52;;;;;;;19.40;10.10;;;;;;;21.22;40.74;99141.31;106543;1280;67282;-89
2022/11/17 16:22:41;;;;;;;18.80;9.60;;;;;;;21.30;40.65;99148.31;106991;1277;73072;-91
2022/11/17 16:33:35;;;;;;;16.60;10.00;;;;;;;21.45;40.39;99165.05;107046;1277;67402;-92
2022/11/17 16:36:04;;;;;;;16.50;10.40;;;;;;;21.47;40.37;99164.89;106563;1279;74364;-91
2022/11/17 16:38:29;;;;;;;16.50;10.10;;;;;;;21.51;40.24;99167.85;106799;1283;82903;-91
2022/11/17 16:40:58;;;;;;;16.50;9.70;;;;;;;21.53;40.20;99169.64;106799;1281;66775;-90
2022/11/17 16:46:36;;;;;;;17.80;10.20;;;;;;;21.57;39.97;99174.45;107038;1281;67924;-92
2022/11/17 16:49:22;;;;;;;15.80;9.10;;;;;;;21.60;40.01;99176.66;106630;1284;74069;-91
2022/11/17 16:52:07;;;;;;;17.30;9.70;;;;;;;21.61;39.82;99183.00;106839;1280;82865;31
2022/11/17 16:54:33;;;;;;;16.00;8.90;;;;;;;21.63;39.89;99184.08;106864;1281;71583;-92
2022/11/17 16:57:07;;;;;;;14.10;9.30;;;;;;;21.65;39.77;99186.35;106672;1281;66873;-92
2022/11/17 16:59:33;;;;;;;14.90;8.70;;;;;;;21.66;39.69;99184.67;106631;1283;67547;-92
2022/11/17 17:04:55;;;;;;;12.20;8.30;;;;;;;21.69;39.62;99186.60;107001;1281;82619;-90
2022/11/17 17:07:21;;;;;;;14.70;9.00;;;;;;;21.71;39.42;99189.48;106724;1283;67435;-92
2022/11/17 17:09:51;;;;;;;13.10;8.70;;;;;;;21.71;39.44;99196.88;106615;1286;68441;31
2022/11/17 17:12:16;;;;;;;18.80;9.80;;;;;;;21.73;39.29;99198.17;106908;1281;67308;-92
2022/11/17 17:14:42;;;;;;;13.50;8.20;;;;;;;21.74;39.32;99199.95;106726;1280;69059;-92
2022/11/17 17:17:08;;;;;;;15.30;8.60;;;;;;;21.74;39.30;99206.04;106627;1286;67820;-92
2022/11/17 17:19:33;;;;;;;14.00;8.70;;;;;;;21.75;39.21;99204.43;106661;1281;67591;-92
2022/11/17 17:22:12;;;;;;;15.30;8.60;;;;;;;21.77;39.03;99208.54;106745;1280;66754;-93
2022/11/17 17:27:05;;;;;;;12.70;8.70;;;;;;;21.77;39.01;99210.58;107305;1284;68215;-92
2022/11/17 17:29:32;;;;;;;18.30;8.80;;;;;;;21.77;38.88;99210.30;106700;1286;72375;-92
2022/11/17 17:31:57;;;;;;;14.50;8.50;;;;;;;21.79;38.89;99212.23;106616;1286;66813;-92
2022/11/17 17:34:23;;;;;;;14.80;9.10;;;;;;;21.78;38.78;99214.74;106712;1277;66871;-90
2022/11/17 17:36:53;;;;;;;13.40;8.10;;;;;;;21.79;38.79;99224.10;106640;1287;66738;-90
2022/11/17 17:39:19;;;;;;;15.50;8.60;;;;;;;21.80;38.68;99227.40;106821;1281;82968;-90
2022/11/17 17:41:53;;;;;;;14.20;8.60;;;;;;;21.79;38.66;99225.67;106977;1284;66737;-90
2022/11/17 17:44:23;;;;;;;12.30;8.10;;;;;;;21.80;38.64;99226.44;106975;1281;66724;-90
2022/11/17 17:47:10;;;;;;;14.30;8.60;;;;;;;21.80;38.49;99230.27;106911;1283;66800;-90
2022/11/17 17:49:57;;;;;;;12.30;8.00;;;;;;;21.80;38.43;99229.14;106973;1279;74345;-91
2022/11/17 17:52:31;;;;;;;14.70;8.50;;;;;;;21.80;38.43;99230.12;106856;1280;82936;-91
2022/11/17 17:55:02;;;;;;;11.20;8.30;;;;;;;21.80;38.31;99228.16;106917;1283;72657;31
2022/11/17 17:59:56;;;;;;;15.50;8.60;;;;;;;21.80;38.41;99229.30;107368;1280;67577;-92
2022/11/17 18:02:22;;;;;;;14.20;8.00;;;;;;;21.80;38.28;99231.26;106887;1282;66800;-92
2022/11/17 18:04:47;;;;;;;11.70;7.70;;;;;;;21.80;38.28;99235.64;106847;1283;67511;-92
2022/11/17 18:07:13;;;;;;;14.90;7.80;;;;;;;21.80;38.20;99234.36;106881;1284;66867;-92
2022/11/17 18:09:39;;;;;;;11.90;7.60;;;;;;;21.80;38.09;99236.05;106901;1277;66820;-92
2022/11/17 18:12:04;;;;;;;11.90;7.90;;;;;;;21.80;38.17;99235.29;106828;1288;74305;-92
2022/11/17 18:14:30;;;;;;;11.00;7.40;;;;;;;21.79;38.04;99240.40;106774;1277;67398;-92
2022/11/17 18:16:56;;;;;;;10.80;7.80;;;;;;;21.80;38.01;99237.02;106867;1284;66945;-92
2022/11/17 18:19:21;;;;;;;13.00;8.20;;;;;;;21.80;37.90;99238.97;106815;1288;67481;-92
2022/11/17 18:21:47;;;;;;;10.80;7.90;;;;;;;21.80;37.98;99243.34;106777;1283;67811;-92
2022/11/17 18:24:13;;;;;;;10.70;7.90;;;;;;;21.80;37.71;99244.72;106914;1283;66952;-92
2022/11/17 18:26:39;;;;;;;11.60;7.40;;;;;;;21.80;37.82;99242.77;106899;1283;66764;-92
2022/11/17 18:29:16;;;;;;;10.60;7.30;;;;;;;21.79;37.81;99247.23;106819;1271;66902;-92
2022/11/17 18:31:45;;;;;;;10.50;7.30;;;;;;;21.79;37.60;99247.79;106782;1283;67497;-92
2022/11/17 18:34:17;;;;;;;8.80;6.90;;;;;;;21.80;37.64;99252.30;106647;1283;74425;-92
2022/11/17 18:36:43;;;;;;;10.20;7.20;;;;;;;21.80;37.69;99254.03;106979;1281;83559;-91
2022/11/17 18:39:09;;;;;;;9.30;7.20;;;;;;;21.79;37.63;99258.77;106866;1283;66891;-92
2022/11/17 18:41:35;;;;;;;11.60;7.50;;;;;;;21.80;37.62;99261.33;106773;1284;66995;-92
2022/11/17 18:44:00;;;;;;;8.30;6.50;;;;;;;21.80;37.49;99267.81;106630;1283;66932;-92
2022/11/17 18:46:34;;;;;;;11.30;7.30;;;;;;;21.80;37.53;99264.59;106736;1287;67568;-91
2022/11/17 18:49:00;;;;;;;11.20;7.00;;;;;;;21.80;37.45;99272.20;106589;1274;83213;-90
2022/11/17 18:57:00;;;;;;;9.30;7.10;;;;;;;21.80;37.33;99286.39;106986;1282;65427;-92
2022/11/17 18:59:26;;;;;;;11.10;7.30;;;;;;;21.80;37.31;99293.19;106789;1284;74419;-90
2022/11/17 19:01:56;;;;;;;9.60;7.40;;;;;;;21.80;37.31;99292.79;106265;1274;68274;-91
2022/11/17 19:04:21;;;;;;;10.00;7.40;;;;;;;21.81;37.29;99292.41;106849;1283;72507;-92
2022/11/17 19:06:54;;;;;;;9.90;7.70;;;;;;;21.80;37.23;99284.71;106709;1275;67619;-90
2022/11/17 19:12:26;;;;;;;9.90;7.00;;;;;;;21.80;37.32;99293.35;106970;1286;73177;31
2022/11/17 19:14:52;;;;;;;10.70;7.10;;;;;;;21.81;37.28;99296.62;106802;1283;84166;-90
2022/11/17 19:17:26;;;;;;;12.20;7.60;;;;;;;21.81;37.10;99298.47;106826;1281;66732;-92
2022/11/17 19:20:14;;;;;;;10.60;7.20;;;;;;;21.80;37.11;99301.53;106871;1281;67433;-92
2022/11/17 19:22:40;;;;;;;12.70;7.40;;;;;;;21.81;37.13;99306.91;106576;1283;67491;-90
2022/11/17 19:25:09;;;;;;;9.80;7.30;;;;;;;21.81;36.90;99311.11;106718;1280;67741;-92
2022/11/17 19:27:35;;;;;;;10.70;7.60;;;;;;;21.81;37.04;99309.73;106571;1284;82923;-90
2022/11/17 19:32:33;;;;;;;11.10;6.90;;;;;;;21.82;36.82;99318.05;106986;1285;65933;-91
2022/11/17 19:35:07;;;;;;;10.10;7.00;;;;;;;21.82;36.87;99318.61;106701;1281;67914;-92
2022/11/17 19:37:33;;;;;;;11.10;7.50;;;;;;;21.83;36.89;99323.20;106708;1283;74522;-92
2022/11/17 19:39:58;;;;;;;9.30;7.10;;;;;;;21.83;36.76;99320.80;106627;1286;67396;-91
2022/11/17 19:42:55;;;;;;;10.40;6.90;;;;;;;21.83;36.78;99328.98;106632;1287;67508;-90
2022/11/17 19:51:23;;;;;;;9.40;7.00;;;;;;;21.83;36.77;99328.98;107013;1277;73285;31
2022/11/17 19:53:50;;;;;;;9.70;7.00;;;;;;;21.83;36.69;99332.11;106754;1283;83071;-91
2022/11/17 19:56:24;;;;;;;9.80;6.80;;;;;;;21.83;36.73;99330.86;106774;1281;71667;-92
2022/11/17 19:58:58;;;;;;;8.60;6.30;;;;;;;21.84;36.58;99334.28;106818;1282;66596;-91
2022/11/17 20:01:24;;;;;;;9.40;6.70;;;;;;;21.85;36.57;99329.88;106529;1288;67461;-92
2022/11/17 20:04:09;;;;;;;10.80;7.10;;;;;;;21.85;36.59;99324.80;106667;1283;74227;-90
2022/11/17 20:06:59;;;;;;;11.20;7.10;;;;;;;21.85;36.57;99331.55;106759;1283;82907;-90
2022/11/17 20:09:24;;;;;;;9.10;7.20;;;;;;;21.85;36.45;99333.81;106778;1284;72478;-90
2022/11/17 20:11:50;;;;;;;10.20;7.00;;;;;;;21.85;36.55;99341.06;106832;1284;66851;-90
2022/11/17 20:14:15;;;;;;;10.20;7.40;;;;;;;21.86;36.58;99339.73;106745;1282;66764;-91
2022/11/17 20:16:44;;;;;;;9.60;7.20;;;;;;;21.85;36.33;99334.71;106792;1286;67519;-92
2022/11/17 20:19:09;;;;;;;11.10;7.40;;;;;;;21.86;36.35;99338.03;106864;1280;66921;-91
2022/11/17 20:21:58;;;;;;;10.00;7.40;;;;;;;21.86;36.37;99340.45;106809;1274;68196;-91
2022/11/17 20:24:28;;;;;;;10.60;7.60;;;;;;;21.86;36.34;99338.55;106669;1279;66649;-92
2022/11/17 20:29:43;;;;;;;9.70;7.40;;;;;;;21.87;36.34;99348.52;106991;1280;74320;-93
2022/11/17 20:32:08;;;;;;;8.40;6.90;;;;;;;21.87;36.33;99347.95;106833;1273;82757;-91
2022/11/17 20:34:40;;;;;;;9.70;6.90;;;;;;;21.87;36.23;99349.16;106833;1280;66713;-92
2022/11/17 20:37:10;;;;;;;8.90;6.60;;;;;;;21.87;36.27;99351.69;106780;1280;66791;-90
2022/11/17 20:42:30;;;;;;;9.90;7.20;;;;;;;21.87;36.12;99359.45;107048;1287;73211;-90
2022/11/17 20:50:27;;;;;;;9.40;6.70;;;;;;;21.87;36.10;99366.48;106844;1288;67314;-90
2022/11/17 20:53:12;;;;;;;11.00;6.90;;;;;;;21.87;35.98;99368.46;106789;1282;66657;-92
2022/11/17 20:55:38;;;;;;;9.20;6.80;;;;;;;21.88;36.05;99374.40;106595;1283;74018;-92
2022/11/17 20:58:13;;;;;;;9.20;7.00;;;;;;;21.88;36.08;99378.66;106631;1283;67720;-92
2022/11/17 21:00:39;;;;;;;10.20;7.50;;;;;;;21.89;36.03;99378.85;106460;1280;72275;-90
2022/11/17 21:06:09;;;;;;;11.10;7.20;;;;;;;21.88;36.04;99386.44;106907;1279;68164;-88
2022/11/17 21:08:36;;;;;;;8.90;7.00;;;;;;;21.88;35.87;99391.19;106848;1284;74417;-92
2022/11/17 21:11:04;;;;;;;9.60;7.00;;;;;;;21.89;35.87;99393.95;106692;1286;82318;-90
2022/11/17 21:13:31;;;;;;;8.70;7.00;;;;;;;21.89;35.82;99390.84;106826;1286;72327;-90
2022/11/17 21:16:06;;;;;;;12.90;6.80;;;;;;;21.89;35.87;99395.23;106807;1288;66747;-90
2022/11/17 21:18:51;;;;;;;9.30;7.10;;;;;;;21.89;35.85;99395.80;106864;1286;66584;-92
2022/11/17 21:21:25;;;;;;;9.30;7.20;;;;;;;21.88;35.80;99397.45;106578;1279;75474;-91
2022/11/17 21:30:23;;;;;;;;;;;;;;;21.85;35.80;99395.21;106946;1280;66760;-91
2022/11/17 21:32:57;;;;;;;10.60;7.10;;;;;;;21.82;35.82;99396.04;106966;1281;67657;31
2022/11/17 21:35:23;;;;;;;10.70;7.00;;;;;;;21.82;35.81;99405.05;106842;1281;74472;-92
2022/11/17 21:37:48;;;;;;;10.80;7.40;;;;;;;21.81;35.75;99408.80;106529;1285;67754;-90
2022/11/17 21:40:14;;;;;;;11.00;7.30;;;;;;;21.80;35.77;99414.45;106914;1284;67422;-92
2022/11/17 21:42:40;;;;;;;8.90;7.00;;;;;;;21.79;35.82;99418.55;106800;1281;66991;-89
2022/11/17 21:45:07;;;;;;;10.00;7.00;;;;;;;21.78;35.71;99425.64;106602;1289;67929;-89
2022/11/17 21:50:13;;;;;;;10.10;7.50;;;;;;;21.75;35.78;99430.88;106817;1281;72273;-92
2022/11/17 21:52:38;;;;;;;10.40;7.40;;;;;;;21.74;35.67;99428.39;106824;1287;66930;-91
2022/11/17 21:55:23;;;;;;;10.30;6.80;;;;;;;21.73;35.68;99428.62;106710;1283;66725;-91
2022/11/17 21:57:49;;;;;;;9.00;7.10;;;;;;;21.72;35.75;99430.74;106592;1280;75265;-92
2022/11/17 22:03:18;;;;;;;8.80;6.80;;;;;;;21.68;35.78;99434.34;106981;1274;71218;-92
2022/11/17 22:05:52;;;;;;;8.80;6.80;;;;;;;21.67;35.80;99430.11;106776;1283;67543;-89
2022/11/17 22:08:18;;;;;;;8.90;6.80;;;;;;;21.66;35.64;99428.86;106876;1283;66825;-90
2022/11/17 22:10:44;;;;;;;9.10;7.40;;;;;;;21.65;35.70;99430.33;106790;1284;67429;-92
2022/11/17 22:13:11;;;;;;;8.90;7.10;;;;;;;21.64;35.58;99429.36;106823;1267;66935;-92
2022/11/17 22:15:37;;;;;;;10.90;7.60;;;;;;;21.62;35.80;99424.22;106833;1279;67550;-92
2022/11/17 22:18:02;;;;;;;8.50;7.20;;;;;;;21.61;35.73;99422.34;106774;1284;67381;-91
2022/11/17 22:26:09;;;;;;;10.40;6.80;;;;;;;21.57;35.77;99429.23;106859;1285;82849;-90
2022/11/17 22:28:34;;;;;;;9.00;7.10;;;;;;;21.56;35.90;99427.69;106789;1284;72573;-92
2022/11/17 22:31:04;;;;;;;9.80;6.70;;;;;;;21.55;35.89;99430.00;106808;1290;66738;-92
2022/11/17 22:33:33;;;;;;;9.30;7.10;;;;;;;21.54;35.72;99427.67;106759;1288;66614;-92
2022/11/17 22:35:59;;;;;;;10.50;7.30;;;;;;;21.54;35.80;99429.67;106878;1283;74377;-91
2022/11/17 22:40:58;;;;;;;8.90;6.70;;;;;;;21.52;35.85;99437.75;107117;1281;70792;-90
2022/11/17 22:46:13;;;;;;;8.60;6.20;;;;;;;21.46;35.98;99436.77;107097;1280;66752;-92
2022/11/17 22:48:46;;;;;;;9.70;6.90;;;;;;;21.46;35.91;99438.71;106809;1281;67983;-91
2022/11/17 22:51:12;;;;;;;9.90;7.00;;;;;;;21.45;35.94;99445.58;106902;1281;82882;-89
2022/11/17 22:53:41;;;;;;;10.50;7.50;;;;;;;21.45;36.00;99447.89;106735;1280;67606;-90
2022/11/17 22:56:08;;;;;;;9.80;6.90;;;;;;;21.44;36.02;99456.10;106871;1281;66798;-91
2022/11/17 22:58:33;;;;;;;9.60;6.80;;;;;;;21.43;36.04;99455.09;106781;1280;68195;-92
2022/11/17 23:01:05;;;;;;;8.20;6.90;;;;;;;21.43;35.97;99451.25;106686;1283;73306;-90
2022/11/17 23:03:31;;;;;;;8.60;6.90;;;;;;;21.42;35.93;99445.30;106691;1274;82882;-91
2022/11/17 23:06:01;;;;;;;9.40;7.40;;;;;;;21.41;35.96;99446.85;106770;1281;67614;-90
2022/11/17 23:08:31;;;;;;;9.60;7.00;;;;;;;21.40;35.99;99454.29;106688;1283;66843;31
2022/11/17 23:11:00;;;;;;;9.10;7.40;;;;;;;21.39;36.02;99454.49;106716;1278;67567;-92
2022/11/17 23:16:31;;;;;;;7.90;6.70;;;;;;;21.37;36.02;99459.35;107061;1284;82079;-91
2022/11/17 23:19:16;;;;;;;;;;;;;;;21.37;35.87;99456.03;106842;1281;73175;-90
2022/11/17 23:21:42;;;;;;;8.30;6.40;;;;;;;21.32;36.13;99455.58;106732;1282;67334;-92
2022/11/17 23:24:13;;;;;;;7.70;6.80;;;;;;;21.32;36.07;99453.04;106689;1289;66907;-92
2022/11/17 23:35:33;;;;;;;8.50;7.10;;;;;;;21.29;35.93;99450.13;107087;1278;66644;31
2022/11/17 23:37:59;;;;;;;9.20;7.00;;;;;;;21.28;35.90;99452.08;106894;1280;66794;-91
2022/11/17 23:40:24;;;;;;;9.60;6.90;;;;;;;21.28;35.75;99449.44;106750;1284;66870;-91
2022/11/17 23:42:52;;;;;;;8.90;7.00;;;;;;;21.28;35.89;99444.11;106800;1288;68260;-90
2022/11/17 23:45:17;;;;;;;10.30;7.10;;;;;;;21.27;35.73;99442.18;106715;1277;67795;-89
2022/11/17 23:47:49;;;;;;;8.90;6.80;;;;;;;21.27;35.67;99440.80;106823;1283;66676;-89
2022/11/17 23:52:53;;;;;;;10.50;6.70;;;;;;;21.26;35.66;99445.43;107008;1282;73057;-90
2022/11/17 23:55:19;;;;;;;9.10;7.00;;;;;;;21.24;35.77;99447.20;106707;1288;66824;-92
2022/11/17 23:57:49;;;;;;;9.50;6.50;;;;;;;21.24;35.66;99448.11;106797;1286;67507;-92
